Sudak — UBGG9 — position and weather

sailwx.info

Track history (hours):
 
Tides and Currents Weather Stations Pressure Air Temp Water Temp Dewpoint Dewpoint Depression Visibility Wind Speed Wind Dir Waves Ship Positions

Sudak

Last reported at 2017-Nov-16 17:14 UTC. Time now 2017-Nov-18 10:29 UTC.
Position N 45°29' E 036°44'.

Length 138 m; draft 2.4 m.

Type: Ship. MMSI: 273445150.

Date/timePositionNaut miles runAvg speedWind from/ knotsBaromVisibWave heightAir tempDewpointWater temp
2017-Nov-16 17:14N 45°29' E 036°44'2 6.3
2017-Nov-16 16:57N 45°27' E 036°42'3 6.3
2017-Nov-16 16:30N 45°25' E 036°41'3 6.2
2017-Nov-16 16:00N 45°22' E 036°40'2 4.8
2017-Nov-16 15:30N 45°20' E 036°38'3 5.2
2017-Nov-16 15:00N 45°19' E 036°34'3 5.5
2017-Nov-16 14:28N 45°18' E 036°30'3 6.5
2017-Nov-16 13:59N 45°15' E 036°29'2 5.1
2017-Nov-16 13:30N 45°13' E 036°30'1 1.3
2017-Nov-16 13:00N 45°13' E 036°30'0 0.0
2017-Nov-16 12:30N 45°13' E 036°30'0 0.0
2017-Nov-16 12:00N 45°13' E 036°30'0 0.0
2017-Nov-16 11:30N 45°13' E 036°30'0 0.0
2017-Nov-16 10:58N 45°13' E 036°30'0 0.0
2017-Nov-16 10:30N 45°13' E 036°30'0 0.0
2017-Nov-16 10:00N 45°13' E 036°30'0 0.0
2017-Nov-16 09:30N 45°13' E 036°30'0 0.0
2017-Nov-16 08:59N 45°13' E 036°30'0 0.0
2017-Nov-16 08:30N 45°13' E 036°30'0 0.0
2017-Nov-16 08:00N 45°13' E 036°30'0 0.0
2017-Nov-16 07:29N 45°13' E 036°30'1 1.9
2017-Nov-16 06:59N 45°12' E 036°31'3 4.9
2017-Nov-16 06:17N 45°08' E 036°30'2 6.2
2017-Nov-16 05:57N 45°07' E 036°33'8 0.6
2017-Nov-15 17:06N 45°14' E 036°28'1 5.2
2017-Nov-15 16:52N 45°15' E 036°28'1 2.9
2017-Nov-15 16:24N 45°16' E 036°28'3 4.3
2017-Nov-15 15:42N 45°19' E 036°32'0 1.6
2017-Nov-15 15:26N 45°18' E 036°32'0 0.8
2017-Nov-15 14:59N 45°19' E 036°33'2 4.3
2017-Nov-15 14:30N 45°20' E 036°35'3 4.5
2017-Nov-15 13:51N 45°21' E 036°39'2 6.1
2017-Nov-15 13:30N 45°23' E 036°40'2 3.9
2017-Nov-15 13:00N 45°24' E 036°43'0 0.0
2017-Nov-15 12:30N 45°24' E 036°43'0 0.0
2017-Nov-15 11:59N 45°24' E 036°43'0 0.3
2017-Nov-15 11:30N 45°24' E 036°43'2 3.8
2017-Nov-15 10:59N 45°26' E 036°42'4 7.0
2017-Nov-15 10:29N 45°28' E 036°45'1 0.4
2017-Nov-15 07:36N 45°29' E 036°46'0 0.0
2017-Nov-15 06:37N 45°29' E 036°46'0 0.1
2017-Nov-15 06:29N 45°29' E 036°46'0 0.0
2017-Nov-15 03:18N 45°29' E 036°46'0 0.0
2017-Nov-15 02:54N 45°29' E 036°46'0 0.0
2017-Nov-15 02:28N 45°29' E 036°46'0 0.0
2017-Nov-15 02:00N 45°29' E 036°46'0 0.0
2017-Nov-14 23:27N 45°29' E 036°46'0 0.0
2017-Nov-14 22:59N 45°29' E 036°46'0 0.0
2017-Nov-14 22:29N 45°29' E 036°46'0 0.1
2017-Nov-14 21:59N 45°29' E 036°46'0 0.0
2017-Nov-14 21:30N 45°29' E 036°46'0 0.0
2017-Nov-14 20:52N 45°29' E 036°46'0 0.0
2017-Nov-14 20:25N 45°29' E 036°46'0 0.0
2017-Nov-14 20:00N 45°29' E 036°46'0 0.0
2017-Nov-14 19:28N 45°29' E 036°46'0 0.1
2017-Nov-14 19:01N 45°29' E 036°46'0 0.0
2017-Nov-14 18:31N 45°29' E 036°46'0 0.0
2017-Nov-14 18:00N 45°29' E 036°46'0 0.0
2017-Nov-14 17:27N 45°29' E 036°46'0 0.0
2017-Nov-14 17:00N 45°29' E 036°46'0 0.0
2017-Nov-14 16:30N 45°29' E 036°46'0 0.0
2017-Nov-14 16:00N 45°29' E 036°46'0 0.1
2017-Nov-14 14:23N 45°29' E 036°46'0 0.0
2017-Nov-14 13:25N 45°29' E 036°46'0 0.0
2017-Nov-14 12:55N 45°29' E 036°46'0 0.1
2017-Nov-14 12:30N 45°29' E 036°46'0 0.0
2017-Nov-14 11:59N 45°29' E 036°46'0 0.0
2017-Nov-14 11:05N 45°29' E 036°46'0 0.1
2017-Nov-14 11:00N 45°29' E 036°46'0 0.0
2017-Nov-14 10:27N 45°29' E 036°46'0 0.0
2017-Nov-14 09:54N 45°29' E 036°46'0 0.0
2017-Nov-14 09:30N 45°29' E 036°46'0 0.0
2017-Nov-14 08:54N 45°29' E 036°46'0 0.0
2017-Nov-14 08:30N 45°29' E 036°46'0 0.0
2017-Nov-14 07:08N 45°29' E 036°46'0 0.0
2017-Nov-14 07:00N 45°29' E 036°46'0 0.0
2017-Nov-14 06:29N 45°29' E 036°46'0 0.0
2017-Nov-14 06:00N 45°29' E 036°46'0 0.0
2017-Nov-14 05:19N 45°29' E 036°46'0 0.0
2017-Nov-14 04:52N 45°29' E 036°46'0 0.0
2017-Nov-13 22:54N 45°29' E 036°46'0 0.0
2017-Nov-13 22:29N 45°29' E 036°46'0 0.0
2017-Nov-13 21:56N 45°29' E 036°46'0 0.0
2017-Nov-13 02:01N 45°29' E 036°46'0 0.0
2017-Nov-13 01:25N 45°29' E 036°46'0 0.0
2017-Nov-13 01:00N 45°29' E 036°46'0 0.0
2017-Nov-13 00:29N 45°29' E 036°46'0 0.0
2017-Nov-13 00:00N 45°29' E 036°46'0 0.0
2017-Nov-12 23:15N 45°29' E 036°46'0 0.0
2017-Nov-12 22:38N 45°29' E 036°46'0 0.0
2017-Nov-12 22:28N 45°29' E 036°46'0 0.0
2017-Nov-12 22:00N 45°29' E 036°46'0 0.0
2017-Nov-12 21:30N 45°29' E 036°46'0 0.0
2017-Nov-12 20:48N 45°29' E 036°46'0 0.0
2017-Nov-12 20:20N 45°29' E 036°46'0 0.0
2017-Nov-12 20:01N 45°29' E 036°46'0 0.0
2017-Nov-12 19:29N 45°29' E 036°46'0 0.0
2017-Nov-12 19:00N 45°29' E 036°46'0 0.0
2017-Nov-12 18:30N 45°29' E 036°46'0 0.0
2017-Nov-12 18:00N 45°29' E 036°46'0 0.0
2017-Nov-12 17:30N 45°29' E 036°46'0 0.0
2017-Nov-12 17:00N 45°29' E 036°46'0 0.0
2017-Nov-12 16:30N 45°29' E 036°46'0 0.0
2017-Nov-12 15:59N 45°29' E 036°46'0 0.0
2017-Nov-12 15:29N 45°29' E 036°46'0 0.0
2017-Nov-12 15:00N 45°29' E 036°46'0 0.0
2017-Nov-12 14:30N 45°29' E 036°46'0 0.0
2017-Nov-12 13:59N 45°29' E 036°46'0 0.0
2017-Nov-12 13:27N 45°29' E 036°46'0 0.0
2017-Nov-12 13:00N 45°29' E 036°46'0 0.0
2017-Nov-12 12:30N 45°29' E 036°46'0 0.0
2017-Nov-12 12:00N 45°29' E 036°46'0 0.0
2017-Nov-12 11:30N 45°29' E 036°46'0 0.0
2017-Nov-12 11:00N 45°29' E 036°46'0 0.0
2017-Nov-12 10:30N 45°29' E 036°46'0 0.0
2017-Nov-12 10:01N 45°29' E 036°46'0 0.0
2017-Nov-12 09:30N 45°29' E 036°46'0 0.0
2017-Nov-12 09:00N 45°29' E 036°46'0 0.0
2017-Nov-12 08:30N 45°29' E 036°46'0 0.0
2017-Nov-12 08:00N 45°29' E 036°46'0 0.0
2017-Nov-12 07:30N 45°29' E 036°46'0 0.0
2017-Nov-12 07:00N 45°29' E 036°46'0 0.0
2017-Nov-12 06:30N 45°29' E 036°46'0 0.0
2017-Nov-12 06:00N 45°29' E 036°46'0 0.0
2017-Nov-12 05:30N 45°29' E 036°46'0 0.0
2017-Nov-12 05:00N 45°29' E 036°46'0 0.1
2017-Nov-12 04:30N 45°29' E 036°46'0 0.0
2017-Nov-12 03:58N 45°29' E 036°46'0 0.0
2017-Nov-12 02:48N 45°29' E 036°46'0 0.0
2017-Nov-12 02:26N 45°29' E 036°46'0 0.0
2017-Nov-12 01:56N 45°29' E 036°46'0 0.0
2017-Nov-12 01:11N 45°29' E 036°46'0 0.0
2017-Nov-11 23:57N 45°29' E 036°46'0 0.0
2017-Nov-11 22:36N 45°29' E 036°46'0 0.0
2017-Nov-11 21:26N 45°29' E 036°46'0 0.1
2017-Nov-11 20:33N 45°29' E 036°46'0 0.1
2017-Nov-11 20:24N 45°29' E 036°46'0 0.0
2017-Nov-11 20:00N 45°29' E 036°46'0 0.0
2017-Nov-11 19:29N 45°29' E 036°46'0 0.0
2017-Nov-11 19:00N 45°29' E 036°46'0 0.0
2017-Nov-11 09:27N 45°29' E 036°46'0 0.0
2017-Nov-11 09:00N 45°29' E 036°46'0 0.0
2017-Nov-11 08:31N 45°29' E 036°46'0 0.0
2017-Nov-11 08:00N 45°29' E 036°46'0 0.0
2017-Nov-11 07:31N 45°29' E 036°46'0 0.0
2017-Nov-11 07:00N 45°29' E 036°46'0 0.0
2017-Nov-11 06:30N 45°29' E 036°46'0 0.0
2017-Nov-11 06:00N 45°29' E 036°46'0 0.1
2017-Nov-11 04:58N 45°29' E 036°46'0 0.0
2017-Nov-11 04:24N 45°29' E 036°46'0 0.0
2017-Nov-11 03:10N 45°29' E 036°46'0 0.0
2017-Nov-10 23:19N 45°29' E 036°46'0 0.0
2017-Nov-10 23:00N 45°29' E 036°46'0 0.0
2017-Nov-10 21:47N 45°29' E 036°46'0 0.0
2017-Nov-10 20:37N 45°29' E 036°46'0 0.0
2017-Nov-10 19:52N 45°29' E 036°46'0 0.0
2017-Nov-10 19:19N 45°29' E 036°46'0 0.0
2017-Nov-10 14:29N 45°29' E 036°46'0 0.0
2017-Nov-10 14:01N 45°29' E 036°46'0 0.0
2017-Nov-10 13:30N 45°29' E 036°46'0 0.0
2017-Nov-10 12:59N 45°29' E 036°46'0 0.0
2017-Nov-10 12:30N 45°29' E 036°46'0 0.0
2017-Nov-10 11:50N 45°29' E 036°46'0 0.0
2017-Nov-10 10:09N 45°29' E 036°46'0 0.0
2017-Nov-10 10:00N 45°29' E 036°46'0 0.0
2017-Nov-10 09:30N 45°29' E 036°46'0 0.0
2017-Nov-10 08:59N 45°29' E 036°46'0 0.0
2017-Nov-10 07:40N 45°29' E 036°46'0 0.0
2017-Nov-10 05:28N 45°29' E 036°46'0 0.0
2017-Nov-10 02:40N 45°29' E 036°46'0 0.0
2017-Nov-10 02:29N 45°29' E 036°46'0 0.0
2017-Nov-09 23:33N 45°29' E 036°46'0 0.0
2017-Nov-09 23:17N 45°29' E 036°46'0 0.0
2017-Nov-09 18:39N 45°29' E 036°46'0 0.0
2017-Nov-09 18:24N 45°29' E 036°46'0 0.0
2017-Nov-09 17:58N 45°29' E 036°46'0 0.0
2017-Nov-09 15:49N 45°29' E 036°46'0 0.0
2017-Nov-09 14:41N 45°29' E 036°46'0 0.0
2017-Nov-09 14:22N 45°29' E 036°46'0 0.0
2017-Nov-09 13:56N 45°29' E 036°46'0 0.0
2017-Nov-09 13:29N 45°29' E 036°46'0 0.0
2017-Nov-09 12:54N 45°29' E 036°46'0 0.0
2017-Nov-09 12:30N 45°29' E 036°46'0 0.0
2017-Nov-09 12:00N 45°29' E 036°46'0 0.0
2017-Nov-09 11:29N 45°29' E 036°46'0 0.0
2017-Nov-09 10:59N 45°29' E 036°46'0 0.0
2017-Nov-09 10:22N 45°29' E 036°46'0 0.0
2017-Nov-09 10:00N 45°29' E 036°46'0 0.0
2017-Nov-09 09:30N 45°29' E 036°46'0 0.0
2017-Nov-09 09:01N 45°29' E 036°46'0 0.0
2017-Nov-09 08:30N 45°29' E 036°46'0 0.0
2017-Nov-09 08:00N 45°29' E 036°46'0 0.0
2017-Nov-09 07:19N 45°29' E 036°46'0 0.0
2017-Nov-09 06:56N 45°29' E 036°46'0 0.0
2017-Nov-09 06:30N 45°29' E 036°46'0 0.0
2017-Nov-09 06:00N 45°29' E 036°46'0 0.0
2017-Nov-09 05:30N 45°29' E 036°46'0 0.0
2017-Nov-09 05:00N 45°29' E 036°46'0 0.0
2017-Nov-09 04:30N 45°29' E 036°46'0 0.0
2017-Nov-09 03:36N 45°29' E 036°46'0 0.0
2017-Nov-09 03:22N 45°29' E 036°46'0 0.0
2017-Nov-09 02:50N 45°29' E 036°46'0 0.0
2017-Nov-09 02:12N 45°29' E 036°46'0 0.0
2017-Nov-09 02:00N 45°29' E 036°46'0 0.0
2017-Nov-09 01:29N 45°29' E 036°46'0 0.0
2017-Nov-09 00:54N 45°29' E 036°46'0 0.0
2017-Nov-08 19:46N 45°29' E 036°46'0 0.0
2017-Nov-08 19:30N 45°29' E 036°46'0 0.0
2017-Nov-08 18:58N 45°29' E 036°46'0 0.0
2017-Nov-08 18:21N 45°29' E 036°46'0 0.0
2017-Nov-08 17:52N 45°29' E 036°46'0 0.0
2017-Nov-08 14:32N 45°29' E 036°46'0 0.1
2017-Nov-08 14:29N 45°29' E 036°46'0 0.0
2017-Nov-08 14:00N 45°29' E 036°46'0 0.0
2017-Nov-08 12:44N 45°29' E 036°46'0 0.0
2017-Nov-08 12:08N 45°29' E 036°46'0 0.0
2017-Nov-08 12:00N 45°29' E 036°46'0 0.0
2017-Nov-08 10:33N 45°29' E 036°46'0 0.2
2017-Nov-08 10:31N 45°29' E 036°46'0 0.0
2017-Nov-08 09:03N 45°29' E 036°46'0 0.0
2017-Nov-08 08:39N 45°29' E 036°46'0 0.0
2017-Nov-08 06:24N 45°29' E 036°46'0 0.0
2017-Nov-08 05:58N 45°29' E 036°46'0 0.0
2017-Nov-08 05:30N 45°29' E 036°46'0 0.0
2017-Nov-08 04:58N 45°29' E 036°46'0 0.0
2017-Nov-07 18:38N 45°29' E 036°46'0 0.0
2017-Nov-07 18:23N 45°29' E 036°46'0 0.0
2017-Nov-07 18:00N 45°29' E 036°46'0 0.0
2017-Nov-07 17:28N 45°29' E 036°46'0 0.0
2017-Nov-07 16:56N 45°29' E 036°46'0 0.0
2017-Nov-07 16:29N 45°29' E 036°46'0 0.0
2017-Nov-07 15:59N 45°29' E 036°46'0 0.0
2017-Nov-07 15:28N 45°29' E 036°46'0 0.0
2017-Nov-07 15:00N 45°29' E 036°46'0 0.0
2017-Nov-07 14:28N 45°29' E 036°46'0 0.0
2017-Nov-07 13:58N 45°29' E 036°46'0 0.0
2017-Nov-07 13:18N 45°29' E 036°46'0 0.0
2017-Nov-07 13:00N 45°29' E 036°46'0 0.0
2017-Nov-07 12:30N 45°29' E 036°46'0 0.0
2017-Nov-07 11:50N 45°29' E 036°46'0 0.0
2017-Nov-07 11:30N 45°29' E 036°46'0 0.0
2017-Nov-07 10:58N 45°29' E 036°46'0 0.0
2017-Nov-07 10:30N 45°29' E 036°46'0 0.0
2017-Nov-07 09:59N 45°29' E 036°46'0 0.0
2017-Nov-07 09:26N 45°29' E 036°46'0 0.0
2017-Nov-07 08:59N 45°29' E 036°46'0 0.0
2017-Nov-07 08:30N 45°29' E 036°46'0 0.0
2017-Nov-07 07:57N 45°29' E 036°46'0 0.0
2017-Nov-07 07:29N 45°29' E 036°46'0 0.0
2017-Nov-07 06:58N 45°29' E 036°46'0 0.0
2017-Nov-07 06:28N 45°29' E 036°46'0 0.0
2017-Nov-07 05:58N 45°29' E 036°46'0 0.0
2017-Nov-07 05:30N 45°29' E 036°46'0 0.0
2017-Nov-07 04:58N 45°29' E 036°46'0 0.0
2017-Nov-07 04:30N 45°29' E 036°46'0 0.0
2017-Nov-07 03:54N 45°29' E 036°46'0 0.0
2017-Nov-07 01:16N 45°29' E 036°46'0 0.0
2017-Nov-06 22:12N 45°29' E 036°46'0 0.0
2017-Nov-06 22:00N 45°29' E 036°46'0 0.0
2017-Nov-06 20:44N 45°29' E 036°46'0 0.0
2017-Nov-06 20:25N 45°29' E 036°46'  
Track history (hours):
 
Tides and Currents Weather Stations Pressure Air Temp Water Temp Dewpoint Dewpoint Depression Visibility Wind Speed Wind Dir Waves Ship Positions

Sudak

Last reported at 2017-Nov-16 17:14 UTC. Time now 2017-Nov-18 10:29 UTC.
Position N 45°29' E 036°44'.

Length 138 m; draft 2.4 m.

Type: Ship. MMSI: 273445150.

Date/timePositionNaut miles runAvg speedWind from/ knotsBaromVisibWave heightAir tempDewpointWater temp
2017-Nov-16 17:14N 45°29' E 036°44'2 6.3
2017-Nov-16 16:57N 45°27' E 036°42'3 6.3
2017-Nov-16 16:30N 45°25' E 036°41'3 6.2
2017-Nov-16 16:00N 45°22' E 036°40'2 4.8
2017-Nov-16 15:30N 45°20' E 036°38'3 5.2
2017-Nov-16 15:00N 45°19' E 036°34'3 5.5
2017-Nov-16 14:28N 45°18' E 036°30'3 6.5
2017-Nov-16 13:59N 45°15' E 036°29'2 5.1
2017-Nov-16 13:30N 45°13' E 036°30'1 1.3
2017-Nov-16 13:00N 45°13' E 036°30'0 0.0
2017-Nov-16 12:30N 45°13' E 036°30'0 0.0
2017-Nov-16 12:00N 45°13' E 036°30'0 0.0
2017-Nov-16 11:30N 45°13' E 036°30'0 0.0
2017-Nov-16 10:58N 45°13' E 036°30'0 0.0
2017-Nov-16 10:30N 45°13' E 036°30'0 0.0
2017-Nov-16 10:00N 45°13' E 036°30'0 0.0
2017-Nov-16 09:30N 45°13' E 036°30'0 0.0
2017-Nov-16 08:59N 45°13' E 036°30'0 0.0
2017-Nov-16 08:30N 45°13' E 036°30'0 0.0
2017-Nov-16 08:00N 45°13' E 036°30'0 0.0
2017-Nov-16 07:29N 45°13' E 036°30'1 1.9
2017-Nov-16 06:59N 45°12' E 036°31'3 4.9
2017-Nov-16 06:17N 45°08' E 036°30'2 6.2
2017-Nov-16 05:57N 45°07' E 036°33'8 0.6
2017-Nov-15 17:06N 45°14' E 036°28'1 5.2
2017-Nov-15 16:52N 45°15' E 036°28'1 2.9
2017-Nov-15 16:24N 45°16' E 036°28'3 4.3
2017-Nov-15 15:42N 45°19' E 036°32'0 1.6
2017-Nov-15 15:26N 45°18' E 036°32'0 0.8
2017-Nov-15 14:59N 45°19' E 036°33'2 4.3
2017-Nov-15 14:30N 45°20' E 036°35'3 4.5
2017-Nov-15 13:51N 45°21' E 036°39'2 6.1
2017-Nov-15 13:30N 45°23' E 036°40'2 3.9
2017-Nov-15 13:00N 45°24' E 036°43'0 0.0
2017-Nov-15 12:30N 45°24' E 036°43'0 0.0
2017-Nov-15 11:59N 45°24' E 036°43'0 0.3
2017-Nov-15 11:30N 45°24' E 036°43'2 3.8
2017-Nov-15 10:59N 45°26' E 036°42'4 7.0
2017-Nov-15 10:29N 45°28' E 036°45'1 0.4
2017-Nov-15 07:36N 45°29' E 036°46'0 0.0
2017-Nov-15 06:37N 45°29' E 036°46'0 0.1
2017-Nov-15 06:29N 45°29' E 036°46'0 0.0
2017-Nov-15 03:18N 45°29' E 036°46'0 0.0
2017-Nov-15 02:54N 45°29' E 036°46'0 0.0
2017-Nov-15 02:28N 45°29' E 036°46'0 0.0
2017-Nov-15 02:00N 45°29' E 036°46'0 0.0
2017-Nov-14 23:27N 45°29' E 036°46'0 0.0
2017-Nov-14 22:59N 45°29' E 036°46'0 0.0
2017-Nov-14 22:29N 45°29' E 036°46'0 0.1
2017-Nov-14 21:59N 45°29' E 036°46'0 0.0
2017-Nov-14 21:30N 45°29' E 036°46'0 0.0
2017-Nov-14 20:52N 45°29' E 036°46'0 0.0
2017-Nov-14 20:25N 45°29' E 036°46'0 0.0
2017-Nov-14 20:00N 45°29' E 036°46'0 0.0
2017-Nov-14 19:28N 45°29' E 036°46'0 0.1
2017-Nov-14 19:01N 45°29' E 036°46'0 0.0
2017-Nov-14 18:31N 45°29' E 036°46'0 0.0
2017-Nov-14 18:00N 45°29' E 036°46'0 0.0
2017-Nov-14 17:27N 45°29' E 036°46'0 0.0
2017-Nov-14 17:00N 45°29' E 036°46'0 0.0
2017-Nov-14 16:30N 45°29' E 036°46'0 0.0
2017-Nov-14 16:00N 45°29' E 036°46'0 0.1
2017-Nov-14 14:23N 45°29' E 036°46'0 0.0
2017-Nov-14 13:25N 45°29' E 036°46'0 0.0
2017-Nov-14 12:55N 45°29' E 036°46'0 0.1
2017-Nov-14 12:30N 45°29' E 036°46'0 0.0
2017-Nov-14 11:59N 45°29' E 036°46'0 0.0
2017-Nov-14 11:05N 45°29' E 036°46'0 0.1
2017-Nov-14 11:00N 45°29' E 036°46'0 0.0
2017-Nov-14 10:27N 45°29' E 036°46'0 0.0
2017-Nov-14 09:54N 45°29' E 036°46'0 0.0
2017-Nov-14 09:30N 45°29' E 036°46'0 0.0
2017-Nov-14 08:54N 45°29' E 036°46'0 0.0
2017-Nov-14 08:30N 45°29' E 036°46'0 0.0
2017-Nov-14 07:08N 45°29' E 036°46'0 0.0
2017-Nov-14 07:00N 45°29' E 036°46'0 0.0
2017-Nov-14 06:29N 45°29' E 036°46'0 0.0
2017-Nov-14 06:00N 45°29' E 036°46'0 0.0
2017-Nov-14 05:19N 45°29' E 036°46'0 0.0
2017-Nov-14 04:52N 45°29' E 036°46'0 0.0
2017-Nov-13 22:54N 45°29' E 036°46'0 0.0
2017-Nov-13 22:29N 45°29' E 036°46'0 0.0
2017-Nov-13 21:56N 45°29' E 036°46'0 0.0
2017-Nov-13 02:01N 45°29' E 036°46'0 0.0
2017-Nov-13 01:25N 45°29' E 036°46'0 0.0
2017-Nov-13 01:00N 45°29' E 036°46'0 0.0
2017-Nov-13 00:29N 45°29' E 036°46'0 0.0
2017-Nov-13 00:00N 45°29' E 036°46'0 0.0
2017-Nov-12 23:15N 45°29' E 036°46'0 0.0
2017-Nov-12 22:38N 45°29' E 036°46'0 0.0
2017-Nov-12 22:28N 45°29' E 036°46'0 0.0
2017-Nov-12 22:00N 45°29' E 036°46'0 0.0
2017-Nov-12 21:30N 45°29' E 036°46'0 0.0
2017-Nov-12 20:48N 45°29' E 036°46'0 0.0
2017-Nov-12 20:20N 45°29' E 036°46'0 0.0
2017-Nov-12 20:01N 45°29' E 036°46'0 0.0
2017-Nov-12 19:29N 45°29' E 036°46'0 0.0
2017-Nov-12 19:00N 45°29' E 036°46'0 0.0
2017-Nov-12 18:30N 45°29' E 036°46'0 0.0
2017-Nov-12 18:00N 45°29' E 036°46'0 0.0
2017-Nov-12 17:30N 45°29' E 036°46'0 0.0
2017-Nov-12 17:00N 45°29' E 036°46'0 0.0
2017-Nov-12 16:30N 45°29' E 036°46'0 0.0
2017-Nov-12 15:59N 45°29' E 036°46'0 0.0
2017-Nov-12 15:29N 45°29' E 036°46'0 0.0
2017-Nov-12 15:00N 45°29' E 036°46'0 0.0
2017-Nov-12 14:30N 45°29' E 036°46'0 0.0
2017-Nov-12 13:59N 45°29' E 036°46'0 0.0
2017-Nov-12 13:27N 45°29' E 036°46'0 0.0
2017-Nov-12 13:00N 45°29' E 036°46'0 0.0
2017-Nov-12 12:30N 45°29' E 036°46'0 0.0
2017-Nov-12 12:00N 45°29' E 036°46'0 0.0
2017-Nov-12 11:30N 45°29' E 036°46'0 0.0
2017-Nov-12 11:00N 45°29' E 036°46'0 0.0
2017-Nov-12 10:30N 45°29' E 036°46'0 0.0
2017-Nov-12 10:01N 45°29' E 036°46'0 0.0
2017-Nov-12 09:30N 45°29' E 036°46'0 0.0
2017-Nov-12 09:00N 45°29' E 036°46'0 0.0
2017-Nov-12 08:30N 45°29' E 036°46'0 0.0
2017-Nov-12 08:00N 45°29' E 036°46'0 0.0
2017-Nov-12 07:30N 45°29' E 036°46'0 0.0
2017-Nov-12 07:00N 45°29' E 036°46'0 0.0
2017-Nov-12 06:30N 45°29' E 036°46'0 0.0
2017-Nov-12 06:00N 45°29' E 036°46'0 0.0
2017-Nov-12 05:30N 45°29' E 036°46'0 0.0
2017-Nov-12 05:00N 45°29' E 036°46'0 0.1
2017-Nov-12 04:30N 45°29' E 036°46'0 0.0
2017-Nov-12 03:58N 45°29' E 036°46'0 0.0
2017-Nov-12 02:48N 45°29' E 036°46'0 0.0
2017-Nov-12 02:26N 45°29' E 036°46'0 0.0
2017-Nov-12 01:56N 45°29' E 036°46'0 0.0
2017-Nov-12 01:11N 45°29' E 036°46'0 0.0
2017-Nov-11 23:57N 45°29' E 036°46'0 0.0
2017-Nov-11 22:36N 45°29' E 036°46'0 0.0
2017-Nov-11 21:26N 45°29' E 036°46'0 0.1
2017-Nov-11 20:33N 45°29' E 036°46'0 0.1
2017-Nov-11 20:24N 45°29' E 036°46'0 0.0
2017-Nov-11 20:00N 45°29' E 036°46'0 0.0
2017-Nov-11 19:29N 45°29' E 036°46'0 0.0
2017-Nov-11 19:00N 45°29' E 036°46'0 0.0
2017-Nov-11 09:27N 45°29' E 036°46'0 0.0
2017-Nov-11 09:00N 45°29' E 036°46'0 0.0
2017-Nov-11 08:31N 45°29' E 036°46'0 0.0
2017-Nov-11 08:00N 45°29' E 036°46'0 0.0
2017-Nov-11 07:31N 45°29' E 036°46'0 0.0
2017-Nov-11 07:00N 45°29' E 036°46'0 0.0
2017-Nov-11 06:30N 45°29' E 036°46'0 0.0
2017-Nov-11 06:00N 45°29' E 036°46'0 0.1
2017-Nov-11 04:58N 45°29' E 036°46'0 0.0
2017-Nov-11 04:24N 45°29' E 036°46'0 0.0
2017-Nov-11 03:10N 45°29' E 036°46'0 0.0
2017-Nov-10 23:19N 45°29' E 036°46'0 0.0
2017-Nov-10 23:00N 45°29' E 036°46'0 0.0
2017-Nov-10 21:47N 45°29' E 036°46'0 0.0
2017-Nov-10 20:37N 45°29' E 036°46'0 0.0
2017-Nov-10 19:52N 45°29' E 036°46'0 0.0
2017-Nov-10 19:19N 45°29' E 036°46'0 0.0
2017-Nov-10 14:29N 45°29' E 036°46'0 0.0
2017-Nov-10 14:01N 45°29' E 036°46'0 0.0
2017-Nov-10 13:30N 45°29' E 036°46'0 0.0
2017-Nov-10 12:59N 45°29' E 036°46'0 0.0
2017-Nov-10 12:30N 45°29' E 036°46'0 0.0
2017-Nov-10 11:50N 45°29' E 036°46'0 0.0
2017-Nov-10 10:09N 45°29' E 036°46'0 0.0
2017-Nov-10 10:00N 45°29' E 036°46'0 0.0
2017-Nov-10 09:30N 45°29' E 036°46'0 0.0
2017-Nov-10 08:59N 45°29' E 036°46'0 0.0
2017-Nov-10 07:40N 45°29' E 036°46'0 0.0
2017-Nov-10 05:28N 45°29' E 036°46'0 0.0
2017-Nov-10 02:40N 45°29' E 036°46'0 0.0
2017-Nov-10 02:29N 45°29' E 036°46'0 0.0
2017-Nov-09 23:33N 45°29' E 036°46'0 0.0
2017-Nov-09 23:17N 45°29' E 036°46'0 0.0
2017-Nov-09 18:39N 45°29' E 036°46'0 0.0
2017-Nov-09 18:24N 45°29' E 036°46'0 0.0
2017-Nov-09 17:58N 45°29' E 036°46'0 0.0
2017-Nov-09 15:49N 45°29' E 036°46'0 0.0
2017-Nov-09 14:41N 45°29' E 036°46'0 0.0
2017-Nov-09 14:22N 45°29' E 036°46'0 0.0
2017-Nov-09 13:56N 45°29' E 036°46'0 0.0
2017-Nov-09 13:29N 45°29' E 036°46'0 0.0
2017-Nov-09 12:54N 45°29' E 036°46'0 0.0
2017-Nov-09 12:30N 45°29' E 036°46'0 0.0
2017-Nov-09 12:00N 45°29' E 036°46'0 0.0
2017-Nov-09 11:29N 45°29' E 036°46'0 0.0
2017-Nov-09 10:59N 45°29' E 036°46'0 0.0
2017-Nov-09 10:22N 45°29' E 036°46'0 0.0
2017-Nov-09 10:00N 45°29' E 036°46'0 0.0
2017-Nov-09 09:30N 45°29' E 036°46'0 0.0
2017-Nov-09 09:01N 45°29' E 036°46'0 0.0
2017-Nov-09 08:30N 45°29' E 036°46'0 0.0
2017-Nov-09 08:00N 45°29' E 036°46'0 0.0
2017-Nov-09 07:19N 45°29' E 036°46'0 0.0
2017-Nov-09 06:56N 45°29' E 036°46'0 0.0
2017-Nov-09 06:30N 45°29' E 036°46'0 0.0
2017-Nov-09 06:00N 45°29' E 036°46'0 0.0
2017-Nov-09 05:30N 45°29' E 036°46'0 0.0
2017-Nov-09 05:00N 45°29' E 036°46'0 0.0
2017-Nov-09 04:30N 45°29' E 036°46'0 0.0
2017-Nov-09 03:36N 45°29' E 036°46'0 0.0
2017-Nov-09 03:22N 45°29' E 036°46'0 0.0
2017-Nov-09 02:50N 45°29' E 036°46'0 0.0
2017-Nov-09 02:12N 45°29' E 036°46'0 0.0
2017-Nov-09 02:00N 45°29' E 036°46'0 0.0
2017-Nov-09 01:29N 45°29' E 036°46'0 0.0
2017-Nov-09 00:54N 45°29' E 036°46'0 0.0
2017-Nov-08 19:46N 45°29' E 036°46'0 0.0
2017-Nov-08 19:30N 45°29' E 036°46'0 0.0
2017-Nov-08 18:58N 45°29' E 036°46'0 0.0
2017-Nov-08 18:21N 45°29' E 036°46'0 0.0
2017-Nov-08 17:52N 45°29' E 036°46'0 0.0
2017-Nov-08 14:32N 45°29' E 036°46'0 0.1
2017-Nov-08 14:29N 45°29' E 036°46'0 0.0
2017-Nov-08 14:00N 45°29' E 036°46'0 0.0
2017-Nov-08 12:44N 45°29' E 036°46'0 0.0
2017-Nov-08 12:08N 45°29' E 036°46'0 0.0
2017-Nov-08 12:00N 45°29' E 036°46'0 0.0
2017-Nov-08 10:33N 45°29' E 036°46'0 0.2
2017-Nov-08 10:31N 45°29' E 036°46'0 0.0
2017-Nov-08 09:03N 45°29' E 036°46'0 0.0
2017-Nov-08 08:39N 45°29' E 036°46'0 0.0
2017-Nov-08 06:24N 45°29' E 036°46'0 0.0
2017-Nov-08 05:58N 45°29' E 036°46'0 0.0
2017-Nov-08 05:30N 45°29' E 036°46'0 0.0
2017-Nov-08 04:58N 45°29' E 036°46'0 0.0
2017-Nov-07 18:38N 45°29' E 036°46'0 0.0
2017-Nov-07 18:23N 45°29' E 036°46'0 0.0
2017-Nov-07 18:00N 45°29' E 036°46'0 0.0
2017-Nov-07 17:28N 45°29' E 036°46'0 0.0
2017-Nov-07 16:56N 45°29' E 036°46'0 0.0
2017-Nov-07 16:29N 45°29' E 036°46'0 0.0
2017-Nov-07 15:59N 45°29' E 036°46'0 0.0
2017-Nov-07 15:28N 45°29' E 036°46'0 0.0
2017-Nov-07 15:00N 45°29' E 036°46'0 0.0
2017-Nov-07 14:28N 45°29' E 036°46'0 0.0
2017-Nov-07 13:58N 45°29' E 036°46'0 0.0
2017-Nov-07 13:18N 45°29' E 036°46'0 0.0
2017-Nov-07 13:00N 45°29' E 036°46'0 0.0
2017-Nov-07 12:30N 45°29' E 036°46'0 0.0
2017-Nov-07 11:50N 45°29' E 036°46'0 0.0
2017-Nov-07 11:30N 45°29' E 036°46'0 0.0
2017-Nov-07 10:58N 45°29' E 036°46'0 0.0
2017-Nov-07 10:30N 45°29' E 036°46'0 0.0
2017-Nov-07 09:59N 45°29' E 036°46'0 0.0
2017-Nov-07 09:26N 45°29' E 036°46'0 0.0
2017-Nov-07 08:59N 45°29' E 036°46'0 0.0
2017-Nov-07 08:30N 45°29' E 036°46'0 0.0
2017-Nov-07 07:57N 45°29' E 036°46'0 0.0
2017-Nov-07 07:29N 45°29' E 036°46'0 0.0
2017-Nov-07 06:58N 45°29' E 036°46'0 0.0
2017-Nov-07 06:28N 45°29' E 036°46'0 0.0
2017-Nov-07 05:58N 45°29' E 036°46'0 0.0
2017-Nov-07 05:30N 45°29' E 036°46'0 0.0
2017-Nov-07 04:58N 45°29' E 036°46'0 0.0
2017-Nov-07 04:30N 45°29' E 036°46'0 0.0
2017-Nov-07 03:54N 45°29' E 036°46'0 0.0
2017-Nov-07 01:16N 45°29' E 036°46'0 0.0
2017-Nov-06 22:12N 45°29' E 036°46'0 0.0
2017-Nov-06 22:00N 45°29' E 036°46'0 0.0
2017-Nov-06 20:44N 45°29' E 036°46'0 0.0
2017-Nov-06 20:25N 45°29' E 036°46'  

Dump ship's entire track history